Flight Track Log - Related Links

Times and Time Zones

All times are in EDT time to prevent confusion due to time zone crossing. See the ACA831 flight status page for this flight to view local times or setup timezone preferences in your user account.

Time Position Orientation Groundspeed Altitude Reporting Facility
EDT Latitude Longitude Course Direction KTS MPH feet Rate Location/Type
Thu 03:57:03 PM 45.4560 -73.7530 38° Northeast  Level FlightAware ADS-B
Thu 04:01:00 PM 45.4333 -74.1172 270° West  Level FlightAware Approximate
Thu 04:02:00 PM 45.4226 -74.2697 260° West  Level FlightAware Approximate
Thu 04:10:51 PM 45.4680 -73.7200 223° Southwest 105 121  Level FlightAware ADS-B
Thu 04:11:11 PM 45.4590 -73.7330 225° Southwest 158 182 500 2,634 Climbing FlightAware ADS-B
Thu 04:11:32 PM 45.4460 -73.7480 219° Southwest 161 185 1,800 3,333 Climbing FlightAware ADS-B
Thu 04:11:47 PM 45.4370 -73.7590 221° Southwest 185 213 2,500 2,813 Climbing FlightAware ADS-B
Thu 04:12:04 PM 45.4250 -73.7720 217° Southwest 208 239 3,300 3,143 Climbing FlightAware ADS-B
Thu 04:12:29 PM 45.4070 -73.7960 223° Southwest 225 259 4,700 3,400 Climbing FlightAware ADS-B
Thu 04:12:34 PM 45.4050 -73.8040 250° West 236 272 5,000 3,600 Climbing FlightAware ADS-B
Thu 04:12:39 PM 45.4030 -73.8120 250° West 239 275 5,300 4,000 Climbing FlightAware ADS-B
Thu 04:12:49 PM 45.4030 -73.8280 270° West 248 285 6,000 4,400 Climbing FlightAware ADS-B
Thu 04:13:09 PM 45.4040 -73.8610 272° West 258 297 7,500 4,047 Climbing FlightAware ADS-B
Thu 04:13:32 PM 45.4050 -73.8940 272° West 266 306 8,900 4,227 Climbing FlightAware ADS-B
Thu 04:13:53 PM 45.3970 -73.9340 254° West 271 312 10,600 4,302 Climbing FlightAware ADS-B
Thu 04:14:25 PM 45.3820 -73.9920 250° West 294 338 12,700 4,235 Climbing FlightAware ADS-B
Thu 04:15:01 PM 45.3670 -74.0490 249° West 285 328 15,400 2,829 Climbing FlightAware ADS-B
Thu 04:15:35 PM 45.3490 -74.1190 250° West 288 331 16,000 1,364 Climbing FlightAware ADS-B
Thu 04:16:07 PM 45.3350 -74.1770 251° West 306 352 16,900 2,500 Climbing FlightAware ADS-B
Thu 04:16:47 PM 45.3170 -74.2580 252° West 329 379 19,000 3,243 Climbing FlightAware ADS-B
Thu 04:17:21 PM 45.3020 -74.3270 253° West 338 389 20,900 3,257 Climbing FlightAware ADS-B
Thu 04:17:57 PM 45.2870 -74.4070 255° West 349 402 22,800 2,912 Climbing FlightAware ADS-B
Thu 04:18:29 PM 45.2790 -74.4780 261° West 358 412 24,200 2,743 Climbing FlightAware ADS-B
Thu 04:19:07 PM 45.2690 -74.5690 261° West 368 423 26,000 3,000 Climbing FlightAware ADS-B
Thu 04:19:43 PM 45.2610 -74.6530 262° West 368 423 27,900 2,400 Climbing FlightAware ADS-B
Thu 04:20:17 PM 45.2520 -74.7390 262° West 390 449 28,800 1,286 Climbing FlightAware ADS-B
Thu 04:20:53 PM 45.2430 -74.8340 262° West 420 483 29,400 1,588 Climbing FlightAware ADS-B
Thu 04:21:25 PM 45.2340 -74.9230 262° West 426 490 30,600 3,182 Climbing FlightAware ADS-B
Thu 04:21:59 PM 45.2250 -75.0120 262° West 402 463 32,900 2,676 Climbing FlightAware ADS-B
Thu 04:22:39 PM 45.2140 -75.1150 261° West 390 449 33,900 917 Climbing FlightAware ADS-B
Thu 04:23:11 PM 45.2060 -75.1930 262° West 387 445 34,000 -618 Climbing FlightAware ADS-B
Thu 04:23:47 PM 45.1960 -75.2840 261° West 392 451 33,200 -1,167 Descending FlightAware ADS-B
Thu 04:24:23 PM 45.1860 -75.3740 261° West 389 448 32,600 -1,059 Descending FlightAware ADS-B
Thu 04:24:55 PM 45.1770 -75.4550 261° West 384 442 32,000 -529 Descending FlightAware ADS-B
Thu 04:25:31 PM 45.1680 -75.5460 262° West 392 451 32,000  Level FlightAware ADS-B
Thu 04:26:06 PM 45.1580 -75.6320 261° West 400 460 32,000  Level FlightAware ADS-B
Thu 04:26:43 PM 45.1470 -75.7320 261° West 400 460 32,000  Level FlightAware ADS-B
Thu 04:27:15 PM 45.1390 -75.8100 262° West 401 461 32,000  Level FlightAware ADS-B
Thu 04:27:51 PM 45.1280 -75.9060 261° West 399 459 32,000  Level FlightAware ADS-B
Thu 04:28:27 PM 45.1180 -75.9980 261° West 397 457 32,000  Level FlightAware ADS-B
Thu 04:29:15 PM 45.1040 -76.1190 261° West 398 458 32,000  Level FlightAware ADS-B
Thu 04:29:50 PM 45.0930 -76.2070 260° West 398 458 32,000  Level FlightAware ADS-B
Thu 04:30:22 PM 45.0720 -76.2800 248° West 402 463 32,000  Level FlightAware ADS-B
Thu 04:31:02 PM 45.0350 -76.3750 241° Southwest 402 463 32,000  Level FlightAware ADS-B
Thu 04:31:37 PM 45.0040 -76.4510 240° Southwest 403 464 32,000 -240 Level FlightAware ADS-B
Thu 04:32:17 PM 44.9660 -76.5470 241° Southwest 408 470 31,700 -720 Descending FlightAware ADS-B
Thu 04:32:52 PM 44.9350 -76.6270 241° Southwest 409 471 31,100 -960 Descending FlightAware ADS-B
Thu 04:33:32 PM 44.8980 -76.7200 241° Southwest 406 467 30,500 -918 Descending FlightAware ADS-B
Thu 04:34:17 PM 44.8580 -76.8180 240° Southwest 406 467 29,800 -988 Descending FlightAware ADS-B
Thu 04:34:57 PM 44.8180 -76.9180 241° Southwest 406 467 29,100 -960 Descending FlightAware ADS-B
Thu 04:35:32 PM 44.7890 -76.9910 241° Southwest 405 466 28,600 -1,029 Descending FlightAware ADS-B
Thu 04:36:07 PM 44.7550 -77.0750 240° Southwest 398 458 27,900 -1,029 Descending FlightAware ADS-B
Thu 04:36:42 PM 44.7240 -77.1490 239° Southwest 395 455 27,400 -943 Descending FlightAware ADS-B
Thu 04:37:17 PM 44.6910 -77.2320 241° Southwest 394 453 26,800 -1,029 Descending FlightAware ADS-B
Thu 04:37:52 PM 44.6600 -77.3080 240° Southwest 391 450 26,200 -686 Descending FlightAware ADS-B
Thu 04:38:27 PM 44.6270 -77.3870 240° Southwest 399 459 26,000 -171 Descending FlightAware ADS-B
Thu 04:39:02 PM 44.5940 -77.4680 240° Southwest 417 480 26,000  Level FlightAware ADS-B
Thu 04:39:37 PM 44.5600 -77.5500 240° Southwest 419 482 26,000  Level FlightAware ADS-B
Thu 04:40:07 PM 44.5320 -77.6180 240° Southwest 418 481 26,000  Level FlightAware ADS-B
Thu 04:40:42 PM 44.4990 -77.6980 240° Southwest 421 484 26,000  Level FlightAware ADS-B
Thu 04:41:22 PM 44.4580 -77.7960 240° Southwest 419 482 26,000  Level FlightAware ADS-B
Thu 04:41:57 PM 44.4270 -77.8720 240° Southwest 419 482 26,000  Level FlightAware ADS-B
Thu 04:42:38 PM 44.3850 -77.9720 240° Southwest 420 483 26,000  Level FlightAware ADS-B
Thu 04:43:17 PM 44.3470 -78.0650 240° Southwest 421 484 26,000  Level FlightAware ADS-B
Thu 04:43:47 PM 44.3200 -78.1290 239° Southwest 421 484 26,000 -257 Level FlightAware ADS-B
Thu 04:44:27 PM 44.2820 -78.2200 240° Southwest 407 468 25,700 -640 Descending FlightAware ADS-B
Thu 04:45:02 PM 44.2490 -78.2980 239° Southwest 390 449 25,200 -831 Descending FlightAware ADS-B
Thu 04:45:32 PM 44.2190 -78.3680 239° Southwest 377 434 24,800 -1,029 Descending FlightAware ADS-B
Thu 04:46:12 PM 44.1840 -78.4500 239° Southwest 369 425 24,000 -1,029 Descending FlightAware ADS-B
Thu 04:46:42 PM 44.1590 -78.5090 239° Southwest 362 417 23,600 -1,015 Descending FlightAware ADS-B
Thu 04:47:17 PM 44.1300 -78.5790 240° Southwest 357 411 22,900 -1,457 Descending FlightAware ADS-B
Thu 04:47:52 PM 44.1010 -78.6460 239° Southwest 354 407 21,900 -1,760 Descending FlightAware ADS-B
Thu 04:48:32 PM 44.0690 -78.7220 240° Southwest 351 404 20,700 -1,800 Descending FlightAware ADS-B
Thu 04:49:02 PM 44.0430 -78.7830 239° Southwest 344 396 19,800 -1,714 Descending FlightAware ADS-B
Thu 04:49:42 PM 44.0080 -78.8600 238° Southwest 339 390 18,700 -1,680 Descending FlightAware ADS-B
Thu 04:50:17 PM 43.9790 -78.9230 237° Southwest 331 381 17,700 -1,629 Descending FlightAware ADS-B
Thu 04:50:52 PM 43.9500 -78.9840 237° Southwest 320 368 16,800 -1,029 Descending FlightAware ADS-B
Thu 04:51:27 PM 43.9250 -79.0410 239° Southwest 295 339 16,500 -1,015 Descending FlightAware ADS-B
Thu 04:51:57 PM 43.9020 -79.0900 237° Southwest 293 337 15,700 -1,662 Descending FlightAware ADS-B
Thu 04:52:32 PM 43.8770 -79.1450 238° Southwest 294 338 14,700 -1,600 Descending FlightAware ADS-B
Thu 04:53:12 PM 43.8500 -79.2030 237° Southwest 294 338 13,700 -1,680 Descending FlightAware ADS-B
Thu 04:53:47 PM 43.8210 -79.2660 237° Southwest 295 339 12,600 -1,754 Descending FlightAware ADS-B
Thu 04:54:17 PM 43.8000 -79.3120 238° Southwest 294 338 11,800 -1,477 Descending FlightAware ADS-B
Thu 04:54:52 PM 43.7710 -79.3650 233° Southwest 293 337 11,000 -800 Descending FlightAware ADS-B
Thu 04:55:17 PM 43.7440 -79.3910 215° Southwest 281 323 11,000 -369 Level FlightAware ADS-B
Thu 04:55:57 PM 43.6940 -79.4060 192° South 265 305 10,600 -686 Descending FlightAware ADS-B
Thu 04:56:27 PM 43.6610 -79.4250 203° Southwest 255 293 10,200 -900 Descending FlightAware ADS-B
Thu 04:56:37 PM 43.6520 -79.4350 219° Southwest 249 287 10,000 -1,200 Descending FlightAware ADS-B
Thu 04:57:02 PM 43.6340 -79.4660 231° Southwest 245 282 9,500 -1,200 Descending FlightAware ADS-B
Thu 04:57:12 PM 43.6280 -79.4780 235° Southwest 245 282 9,300 -1,200 Descending FlightAware ADS-B
Thu 04:57:37 PM 43.6100 -79.5090 231° Southwest 244 281 8,800 -1,200 Descending FlightAware ADS-B
Thu 04:57:57 PM 43.5960 -79.5330 231° Southwest 244 281 8,400 -1,500 Descending FlightAware ADS-B
Thu 04:58:17 PM 43.5810 -79.5560 228° Southwest 246 283 7,800 -1,714 Descending FlightAware ADS-B
Thu 04:58:32 PM 43.5690 -79.5730 226° Southwest 249 287 7,400 -1,714 Descending FlightAware ADS-B
Thu 04:58:52 PM 43.5530 -79.5970 227° Southwest 252 290 6,800 -1,650 Descending FlightAware ADS-B
Thu 04:59:12 PM 43.5370 -79.6200 226° Southwest 249 287 6,300 -1,500 Descending FlightAware ADS-B
Thu 04:59:32 PM 43.5220 -79.6420 227° Southwest 246 283 5,800 -1,467 Descending FlightAware ADS-B
Thu 04:59:57 PM 43.5020 -79.6710 226° Southwest 242 278 5,200 -1,467 Descending FlightAware ADS-B
Thu 05:00:17 PM 43.4870 -79.6930 227° Southwest 238 274 4,700 -1,400 Descending FlightAware ADS-B
Thu 05:00:27 PM 43.4810 -79.7050 235° Southwest 232 267 4,500 -1,500 Descending FlightAware ADS-B
Thu 05:00:37 PM 43.4790 -79.7190 259° West 225 259 4,200 -1,400 Descending FlightAware ADS-B
Thu 05:00:57 PM 43.4830 -79.7470 281° West 216 249 3,800 -1,200 Descending FlightAware ADS-B
Thu 05:01:07 PM 43.4880 -79.7570 305° West 213 245 3,600 -600 Descending FlightAware ADS-B
Thu 05:01:27 PM 43.5000 -79.7790 307° West 198 228 3,500 -600 Descending FlightAware ADS-B
Thu 05:01:37 PM 43.5060 -79.7870 316° Northwest 191 220 3,300 -600 Descending FlightAware ADS-B
Thu 05:01:47 PM 43.5140 -79.7910 340° North 184 212 3,300 -300 Level FlightAware ADS-B
Thu 05:01:57 PM 43.5230 -79.7890 North 181 208 3,200 -462 Descending FlightAware ADS-B
Thu 05:02:13 PM 43.5330 -79.7830 24° Northeast 177 204 3,100 -343 Descending FlightAware ADS-B
Thu 05:02:32 PM 43.5480 -79.7710 30° Northeast 181 208 3,000 -200 Descending FlightAware ADS-B
Thu 05:02:43 PM 43.5540 -79.7630 44° Northeast 187 215 3,000 -343 Level FlightAware ADS-B
Thu 05:03:07 PM 43.5700 -79.7410 45° Northeast 191 220 2,800 -818 Descending FlightAware ADS-B
Thu 05:03:27 PM 43.5820 -79.7230 47° Northeast 187 215 2,400 -1,050 Descending FlightAware ADS-B
Thu 05:03:47 PM 43.5940 -79.7060 46° Northeast 178 205 2,100 -900 Descending FlightAware ADS-B
Thu 05:04:07 PM 43.6040 -79.6920 45° Northeast 159 183 1,800 -750 Descending FlightAware ADS-B
Thu 05:04:27 PM 43.6130 -79.6790 46° Northeast 151 174 1,600 -686 Descending FlightAware ADS-B
Thu 05:04:42 PM 43.6210 -79.6670 47° Northeast 150 173 1,400 -857 Descending FlightAware ADS-B
Thu 05:05:02 PM 43.6310 -79.6530 45° Northeast 149 171 1,100 -857 Descending FlightAware ADS-B
Thu 05:05:17 PM 43.6370 -79.6440 47° Northeast 150 173 900 -300 Descending FlightAware ADS-B
Thu 05:05:42 PM 43.6470 -79.6300 45° Northeast 150 173 900  Level FlightAware ADS-B

Login

Don't have an account? Register now (free) for customized features, flight alerts, and more!